Time;durP1;ratioP1;P1;durP2;ratioP2;P2;SDS_P1;SDS_P2;PMS_P1;PMS_P2;Temp;Humidity;BMP_temperature;BMP_pressure;BME280_temperature;BME280_humidity;BME280_pressure;Samples;Min_cycle;Max_cycle;Signal;HPM_P1;HPM_P2
2023/12/02 00:01:03;;;;;;;;;;;;;;;-4.51;100.00;100658.81;6203727;23;19927;-80
2023/12/02 00:03:50;;;;;;;;;;;;;;;-4.56;100.00;100659.09;6160484;23;19912;-80
2023/12/02 00:06:16;;;;;;;;;;;;;;;-4.59;100.00;100656.69;6155736;23;20252;-80
2023/12/02 00:08:58;;;;;;;;;;;;;;;-4.62;100.00;100668.25;6218657;23;19916;-80
2023/12/02 00:11:23;;;;;;;;;;;;;;;-4.62;100.00;100662.16;6214263;23;20370;-80
2023/12/02 00:32:10;;;;;;;;;;;;;;;-4.54;100.00;100649.34;6207751;23;20264;31
2023/12/02 00:38:13;;;;;;;;;;;;;;;-4.48;100.00;100653.31;6157746;23;19946;-79
2023/12/02 01:19:32;;;;;;;;;;;;;;;-4.36;100.00;100652.50;6227260;23;19920;-80
2023/12/02 01:28:16;;;;;;;;;;;;;;;-4.36;100.00;100659.53;6226361;22;19926;-80
2023/12/02 01:31:09;;;;;;;;;;;;;;;-4.41;100.00;100658.06;6254975;23;19916;-79
2023/12/02 01:51:49;;;;;;;;;;;;;;;-4.53;100.00;100655.44;6216623;23;19930;-79
2023/12/02 01:55:08;;;;;;;;;;;;;;;-4.56;100.00;100656.47;6215160;23;20191;-79
2023/12/02 02:00:59;;;;;;;;;;;;;;;-4.58;100.00;100650.47;6217363;23;19922;-79
2023/12/02 02:03:24;;;;;;;;;;;;;;;-4.64;100.00;100654.38;6214810;23;20483;-79
2023/12/02 02:08:24;;;;;;;;;;;;;;;-4.66;100.00;100676.44;6189516;23;19955;-80
2023/12/02 02:20:19;;;;;;;;;;;;;;;-4.67;100.00;100680.00;6213416;22;19928;-79
2023/12/02 02:31:57;;;;;;;;;;;;;;;-4.68;100.00;100696.69;6187178;22;20338;-78
2023/12/02 02:34:25;;;;;;;;;;;;;;;-4.72;100.00;100694.28;6186805;23;19960;-78
2023/12/02 02:36:59;;;;;;;;;;;;;;;-4.73;100.00;100692.59;6189200;23;19916;-79
2023/12/02 02:42:27;;;;;;;;;;;;;;;-4.72;100.00;100690.81;6188128;22;19927;-78
2023/12/02 02:47:33;;;;;;;;;;;;;;;-4.67;100.00;100695.75;6188475;22;19924;-78
2023/12/02 02:50:11;;;;;;;;;;;;;;;-4.67;100.00;100696.59;6159235;23;19912;-78
2023/12/02 02:55:52;;;;;;;;;;;;;;;-4.64;100.00;100701.66;6186248;23;20023;-78
2023/12/02 02:58:17;;;;;;;;;;;;;;;-4.66;100.00;100705.31;6185864;23;19913;-78
2023/12/02 03:00:54;;;;;;;;;;;;;;;-4.66;100.00;100702.69;6185499;23;19920;-78
2023/12/02 03:03:28;;;;;;;;;;;;;;;-4.68;100.00;100708.06;6185807;23;19916;-77
2023/12/02 03:05:54;;;;;;;;;;;;;;;-4.67;100.00;100695.75;6185034;23;19916;-78
2023/12/02 03:08:19;;;;;;;;;;;;;;;-4.68;100.00;100699.34;6185588;23;19992;-78
2023/12/02 03:14:12;;;;;;;;;;;;;;;-4.73;100.00;100700.47;6185110;23;20302;-77
2023/12/02 03:19:52;;;;;;;;;;;;;;;-4.69;100.00;100708.16;6122861;23;19920;-78
2023/12/02 03:22:17;;;;;;;;;;;;;;;-4.66;100.00;100705.31;6124000;23;20402;-78
2023/12/02 03:24:51;;;;;;;;;;;;;;;-4.65;100.00;100707.00;6122999;23;19913;-78
2023/12/02 03:27:53;;;;;;;;;;;;;;;-4.65;100.00;100704.38;6121584;23;19917;-78
2023/12/02 03:30:19;;;;;;;;;;;;;;;-4.66;100.00;100710.56;6123000;23;19924;-78
2023/12/02 03:32:59;;;;;;;;;;;;;;;-4.66;100.00;100713.22;6123086;23;19909;-77
2023/12/02 03:35:56;;;;;;;;;;;;;;;-4.62;100.00;100715.53;6122580;23;19913;-78
2023/12/02 03:38:21;;;;;;;;;;;;;;;-4.62;100.00;100709.44;6123735;23;20374;-77
2023/12/02 03:41:14;;;;;;;;;;;;;;;-4.63;100.00;100713.00;6123372;23;19951;-78
2023/12/02 03:55:53;;;;;;;;;;;;;;;-4.66;100.00;100723.72;6214118;23;19923;-78
2023/12/02 03:58:21;;;;;;;;;;;;;;;-4.51;100.00;100716.59;6215288;23;19916;-79
2023/12/02 04:04:26;;;;;;;;;;;;;;;-4.50;100.00;100719.13;6213987;23;20003;-78
2023/12/02 04:06:54;;;;;;;;;;;;;;;-4.61;100.00;100717.22;6216180;23;19934;-79
2023/12/02 04:09:33;;;;;;;;;;;;;;;-4.67;100.00;100722.03;6214453;23;19991;-79
2023/12/02 04:12:34;;;;;;;;;;;;;;;-4.71;100.00;100718.78;6215779;23;19912;-79
2023/12/02 04:18:17;;;;;;;;;;;;;;;-4.83;100.00;100733.53;6214665;23;19918;-79
2023/12/02 04:20:54;;;;;;;;;;;;;;;-4.87;100.00;100730.28;6216848;23;19912;-79
2023/12/02 04:26:16;;;;;;;;;;;;;;;-4.91;100.00;100735.81;6168904;23;20241;-79
2023/12/02 04:31:57;;;;;;;;;;;;;;;-4.89;100.00;100744.44;6218330;22;19927;-78
2023/12/02 04:34:34;;;;;;;;;;;;;;;-4.88;100.00;100748.75;6245168;23;19911;-78
2023/12/02 04:40:15;;;;;;;;;;;;;;;-4.80;100.00;100750.88;6245540;23;19922;-78
2023/12/02 04:43:06;;;;;;;;;;;;;;;-4.72;100.00;100752.06;6246016;23;19915;-79
2023/12/02 04:46:05;;;;;;;;;;;;;;;-4.69;100.00;100755.44;6122570;23;19965;-79
2023/12/02 04:48:31;;;;;;;;;;;;;;;-4.66;100.00;100760.47;6246124;23;19915;-79
2023/12/02 04:51:12;;;;;;;;;;;;;;;-4.72;100.00;100762.56;6168042;23;19916;-79
2023/12/02 05:05:59;;;;;;;;;;;;;;;-4.53;100.00;100777.13;6215918;23;20532;-78
2023/12/02 05:08:28;;;;;;;;;;;;;;;-4.42;100.00;100761.50;6214500;23;19995;-79
2023/12/02 05:10:54;;;;;;;;;;;;;;;-4.41;100.00;100757.06;6214983;23;19946;-79
2023/12/02 05:13:31;;;;;;;;;;;;;;;-4.36;100.00;100759.41;6214454;23;19912;-79
2023/12/02 05:16:01;;;;;;;;;;;;;;;-4.45;100.00;100766.97;6155293;23;19934;-79
2023/12/02 05:19:00;;;;;;;;;;;;;;;-4.46;100.00;100767.91;6181420;23;19913;-79
2023/12/02 05:21:27;;;;;;;;;;;;;;;-4.37;100.00;100768.22;6206659;23;19916;-79
2023/12/02 05:23:55;;;;;;;;;;;;;;;-4.52;100.00;100764.84;6211934;23;19912;-78
2023/12/02 05:26:51;;;;;;;;;;;;;;;-4.58;100.00;100766.06;6213716;23;19908;-78
2023/12/02 05:29:50;;;;;;;;;;;;;;;-4.81;100.00;100773.69;6214783;23;19912;-78
2023/12/02 05:35:21;;;;;;;;;;;;;;;-5.23;100.00;100772.84;6097068;23;19988;-78
2023/12/02 05:37:54;;;;;;;;;;;;;;;-5.31;100.00;100764.63;6093617;23;19980;-79
2023/12/02 05:43:56;;;;;;;;;;;;;;;-5.42;100.00;100770.53;6211103;23;19927;-78
2023/12/02 05:48:56;;;;;;;;;;;;;;;-5.43;100.00;100774.94;6208010;23;19978;-78
2023/12/02 05:51:51;;;;;;;;;;;;;;;-5.44;100.00;100769.78;6190132;23;19920;-78
2023/12/02 05:54:16;;;;;;;;;;;;;;;-5.69;100.00;100777.38;6209766;23;19962;-77
2023/12/02 05:56:54;;;;;;;;;;;;;;;-5.78;100.00;100777.94;6216471;23;19912;-78
2023/12/02 05:59:25;;;;;;;;;;;;;;;-5.89;100.00;100780.38;6218068;23;20249;-78
2023/12/02 06:02:05;;;;;;;;;;;;;;;-5.94;100.00;100785.91;6195615;23;19916;-78
2023/12/02 06:04:58;;;;;;;;;;;;;;;-6.04;100.00;100798.72;6218692;23;19912;-78
2023/12/02 06:07:54;;;;;;;;;;;;;;;-5.94;100.00;100794.59;6216025;23;19923;-78
2023/12/02 06:10:20;;;;;;;;;;;;;;;-5.85;100.00;100789.75;6215653;23;20279;-78
2023/12/02 06:13:03;;;;;;;;;;;;;;;-5.97;100.00;100792.13;6218944;23;19940;-79
2023/12/02 06:18:03;;;;;;;;;;;;;;;-6.13;100.00;100796.63;6215901;23;19931;-75
2023/12/02 06:20:29;;;;;;;;;;;;;;;-6.17;100.00;100798.59;6217363;23;19912;-76
2023/12/02 06:22:54;;;;;;;;;;;;;;;-6.16;100.00;100794.19;6215669;23;19923;-76
2023/12/02 06:25:20;;;;;;;;;;;;;;;-6.12;100.00;100793.94;6217058;23;19985;-77
2023/12/02 06:27:48;;;;;;;;;;;;;;;-6.05;100.00;100796.19;6219420;23;19916;-79
2023/12/02 06:30:17;;;;;;;;;;;;;;;-5.95;100.00;100798.13;6219509;23;19923;-79
2023/12/02 06:32:42;;;;;;;;;;;;;;;-5.90;100.00;100799.66;6220364;23;19911;-79
2023/12/02 06:35:08;;;;;;;;;;;;;;;-5.84;100.00;100799.28;6218347;23;20205;-79
2023/12/02 06:37:40;;;;;;;;;;;;;;;-5.75;100.00;100803.97;6215056;23;20213;-79
2023/12/02 06:40:06;;;;;;;;;;;;;;;-5.61;100.00;100802.28;6215573;23;20343;-81
2023/12/02 06:42:31;;;;;;;;;;;;;;;-5.45;100.00;100810.06;6215516;23;19912;-80
2023/12/02 06:44:56;;;;;;;;;;;;;;;-5.53;100.00;100808.75;6214041;23;20490;-79
2023/12/02 06:47:21;;;;;;;;;;;;;;;-5.56;100.00;100813.34;6214691;23;19911;-80
2023/12/02 06:49:47;;;;;;;;;;;;;;;-5.64;100.00;100803.31;6215685;23;19923;-80
2023/12/02 06:52:12;;;;;;;;;;;;;;;-5.68;100.00;100810.53;6214750;23;19979;-81
2023/12/02 06:54:40;;;;;;;;;;;;;;;-5.67;100.00;100807.00;6214499;23;19916;-81
2023/12/02 06:57:05;;;;;;;;;;;;;;;-5.43;100.00;100818.69;6216825;23;19912;-79
2023/12/02 06:59:30;;;;;;;;;;;;;;;-5.30;100.00;100818.78;6222269;23;20007;-80
2023/12/02 07:01:56;;;;;;;;;;;;;;;-5.17;100.00;100822.31;6216103;23;19947;-81
2023/12/02 07:04:21;;;;;;;;;;;;;;;-5.07;100.00;100818.19;6215819;23;20048;-80
2023/12/02 07:06:46;;;;;;;;;;;;;;;-5.15;100.00;100817.81;6215062;23;20355;-80
2023/12/02 07:09:12;;;;;;;;;;;;;;;-5.13;100.00;100823.84;6215074;23;19939;-80
2023/12/02 07:11:37;;;;;;;;;;;;;;;-5.13;100.00;100826.47;6215350;23;19938;-79
2023/12/02 07:14:03;;;;;;;;;;;;;;;-4.97;100.00;100836.81;6214136;23;20003;-80
2023/12/02 07:16:31;;;;;;;;;;;;;;;-4.96;100.00;100842.94;6213940;23;19935;-79
2023/12/02 07:18:56;;;;;;;;;;;;;;;-4.92;100.00;100849.66;6214851;23;19966;-79
2023/12/02 07:21:22;;;;;;;;;;;;;;;-4.88;100.00;100848.53;6211781;23;19928;-80
2023/12/02 07:27:13;;;;;;;;;;;;;;;-5.12;100.00;100864.03;6214222;23;20008;-80
2023/12/02 07:29:38;;;;;;;;;;;;;;;-5.19;100.00;100863.56;6215031;23;19920;-79
2023/12/02 07:32:07;;;;;;;;;;;;;;;-5.11;100.00;100866.53;6214120;23;20329;-79
2023/12/02 07:34:32;;;;;;;;;;;;;;;-5.18;100.00;100876.59;6215002;23;19939;-79
2023/12/02 08:01:09;;;;;;;;;;;;;;;-4.52;100.00;100911.97;6198155;23;19939;-78
2023/12/02 08:03:57;;;;;;;;;;;;;;;-4.49;100.00;100909.97;6213421;23;19912;-76
2023/12/02 08:12:57;;;;;;;;;;;;;;;-4.16;100.00;100914.00;6150717;23;19913;-78
2023/12/02 08:15:22;;;;;;;;;;;;;;;-4.07;100.00;100922.25;6147760;23;19947;-79
2023/12/02 08:17:53;;;;;;;;;;;;;;;-3.99;100.00;100912.91;6148752;23;19913;-79
2023/12/02 08:20:18;;;;;;;;;;;;;;;-3.86;100.00;100918.19;6150070;23;19912;-79
2023/12/02 08:23:17;;;;;;;;;;;;;;;-3.69;100.00;100919.72;6185945;23;19969;-80
2023/12/02 08:25:54;;;;;;;;;;;;;;;-3.78;100.00;100924.72;6212555;23;20325;-78
2023/12/02 08:28:35;;;;;;;;;;;;;;;-3.86;100.00;100928.69;6213022;23;19920;-78
2023/12/02 08:31:00;;;;;;;;;;;;;;;-3.66;100.00;100929.16;6211604;23;19916;-78
2023/12/02 08:33:28;;;;;;;;;;;;;;;-3.80;100.00;100935.38;6213793;23;20343;-78
2023/12/02 08:39:31;;;;;;;;;;;;;;;-3.77;100.00;100932.50;6212282;23;20030;-78
2023/12/02 09:12:55;;;;;;;;;;;;;;;-3.61;100.00;100948.13;6212071;23;19942;-78
2023/12/02 09:15:57;;;;;;;;;;;;;;;-3.59;100.00;100946.25;6211692;23;19951;-77
2023/12/02 09:21:53;;;;;;;;;;;;;;;-3.36;100.00;100957.84;6213978;23;19923;-78
2023/12/02 09:27:52;;;;;;;;;;;;;;;-3.35;100.00;100954.28;6214202;23;19938;-78
2023/12/02 09:33:21;;;;;;;;;;;;;;;-3.09;100.00;100974.50;6209200;23;19981;-77
2023/12/02 09:35:56;;;;;;;;;;;;;;;-3.09;100.00;100975.34;6212985;23;20264;-78
2023/12/02 09:38:55;;;;;;;;;;;;;;;-3.18;100.00;100975.16;6213371;23;19916;-77
2023/12/02 09:56:19;;;;;;;;;;;;;;;-3.06;100.00;100974.31;6122243;23;20683;-78
2023/12/02 09:58:56;;;;;;;;;;;;;;;-2.69;99.72;100961.22;6123197;23;19913;-77
2023/12/02 10:01:27;;;;;;;;;;;;;;;-2.67;99.45;100967.22;6098340;23;19912;-77
2023/12/02 10:03:58;;;;;;;;;;;;;;;-2.73;99.99;100972.91;6101415;23;19920;-78
2023/12/02 10:15:43;;;;;;;;;;;;;;;-3.18;100.00;100985.69;6131944;23;20000;-77
2023/12/02 10:21:27;;;;;;;;;;;;;;;-2.91;100.00;100982.91;6213976;23;19958;-78
2023/12/02 10:24:11;;;;;;;;;;;;;;;-2.66;100.00;100982.09;6214029;23;19931;-78
2023/12/02 10:26:55;;;;;;;;;;;;;;;-2.79;100.00;100982.09;6213501;23;19924;-78
2023/12/02 10:29:55;;;;;;;;;;;;;;;-2.71;100.00;100983.31;6212254;23;19919;-78
2023/12/02 10:32:38;;;;;;;;;;;;;;;-2.57;100.00;100985.88;6212462;23;19918;-78
2023/12/02 10:35:16;;;;;;;;;;;;;;;-2.35;99.50;100979.91;6214143;23;19920;-78
2023/12/02 10:37:41;;;;;;;;;;;;;;;-2.33;98.63;100982.41;6212456;23;19954;-78
2023/12/02 10:40:19;;;;;;;;;;;;;;;-2.24;98.18;100983.56;6211088;23;19912;-78
2023/12/02 10:43:03;;;;;;;;;;;;;;;-2.00;96.21;100983.56;6186143;23;19916;-78
2023/12/02 10:45:29;;;;;;;;;;;;;;;-2.16;96.79;100983.84;6213056;23;19958;-77
2023/12/02 10:48:13;;;;;;;;;;;;;;;-2.02;95.82;100986.34;6213742;23;19912;-78
2023/12/02 10:50:53;;;;;;;;;;;;;;;-1.83;94.94;100974.44;6185700;23;20333;-77
2023/12/02 10:53:34;;;;;;;;;;;;;;;-1.81;94.03;100972.53;6185687;23;19920;-78
2023/12/02 10:56:16;;;;;;;;;;;;;;;-2.02;95.75;100961.72;6213533;23;19948;-78
2023/12/02 10:58:56;;;;;;;;;;;;;;;-2.01;96.53;100956.34;6208372;23;19916;-77
2023/12/02 11:01:50;;;;;;;;;;;;;;;-1.86;95.30;100958.81;6212178;23;19951;-78
2023/12/02 11:04:27;;;;;;;;;;;;;;;-1.60;94.37;100964.81;6149292;23;19912;-78
2023/12/02 11:06:53;;;;;;;;;;;;;;;-1.45;92.89;100964.59;6185670;23;19966;-78
2023/12/02 11:09:31;;;;;;;;;;;;;;;-1.32;92.97;100953.94;6186022;23;19919;-78
2023/12/02 11:12:06;;;;;;;;;;;;;;;-1.12;92.67;100948.00;6212483;23;19923;-78
2023/12/02 11:14:40;;;;;;;;;;;;;;;-1.14;91.37;100954.31;6185591;23;19916;-78
2023/12/02 11:17:06;;;;;;;;;;;;;;;-0.58;89.43;100950.88;6212470;23;20385;-78
2023/12/02 11:19:45;;;;;;;;;;;;;;;-0.78;88.60;100955.06;6212938;23;20038;-78
2023/12/02 11:22:21;;;;;;;;;;;;;;;-0.64;90.04;100940.78;6186498;23;19912;-78
2023/12/02 11:24:52;;;;;;;;;;;;;;;0.17;85.23;100955.53;6212652;23;19922;-78
2023/12/02 11:27:28;;;;;;;;;;;;;;;0.35;82.50;100959.28;6212934;23;19912;-78
2023/12/02 11:30:02;;;;;;;;;;;;;;;-0.31;85.47;100957.56;6185257;23;20047;-78
2023/12/02 11:32:27;;;;;;;;;;;;;;;-0.50;87.12;100969.59;6159169;23;19931;-78
2023/12/02 11:35:04;;;;;;;;;;;;;;;-0.52;87.25;100965.41;6210844;23;19911;-79
2023/12/02 11:37:48;;;;;;;;;;;;;;;-0.58;87.53;100961.47;6191817;23;19919;-79
2023/12/02 11:40:19;;;;;;;;;;;;;;;-0.54;88.07;100973.47;6218992;23;19915;-78
2023/12/02 11:42:54;;;;;;;;;;;;;;;-0.79;87.81;100963.97;6213411;23;19924;-78
2023/12/02 11:45:22;;;;;;;;;;;;;;;-0.71;88.89;100963.41;6211562;23;20047;-78
2023/12/02 11:47:47;;;;;;;;;;;;;;;-1.04;89.45;100975.59;6185406;23;19908;-78
2023/12/02 11:50:16;;;;;;;;;;;;;;;-1.32;91.38;100977.72;6213596;23;20238;-78
2023/12/02 11:53:01;;;;;;;;;;;;;;;-1.24;93.07;100981.47;6186639;23;19918;-78
2023/12/02 11:55:32;;;;;;;;;;;;;;;-1.13;91.35;100983.28;6181088;23;20310;-78
2023/12/02 11:58:10;;;;;;;;;;;;;;;-1.26;93.38;100977.28;6213353;23;19923;-77
2023/12/02 12:00:45;;;;;;;;;;;;;;;-1.01;93.06;100986.81;6185822;23;19912;-77
2023/12/02 12:03:18;;;;;;;;;;;;;;;-0.73;90.59;100978.53;6214535;23;20268;-77
2023/12/02 12:06:02;;;;;;;;;;;;;;;-0.94;91.00;100979.22;6212889;23;19946;-77
2023/12/02 12:08:33;;;;;;;;;;;;;;;-0.35;89.45;100985.22;6211634;23;19908;-78
2023/12/02 12:10:58;;;;;;;;;;;;;;;-0.06;87.90;100984.69;6187553;23;19981;-78
2023/12/02 12:13:25;;;;;;;;;;;;;;;-0.19;87.25;100993.63;6214152;23;19908;-78
2023/12/02 12:15:50;;;;;;;;;;;;;;;0.27;85.22;100993.50;6186319;23;19912;-78
2023/12/02 12:18:17;;;;;;;;;;;;;;;-0.07;85.21;100999.72;6214677;23;20280;-78
2023/12/02 12:20:42;;;;;;;;;;;;;;;-0.37;86.46;100995.09;6187295;23;20300;-78
2023/12/02 12:23:07;;;;;;;;;;;;;;;-0.52;87.60;101000.63;6213572;23;19922;-77
2023/12/02 12:25:36;;;;;;;;;;;;;;;-0.68;88.79;100998.34;6217482;23;19966;-78
2023/12/02 12:28:01;;;;;;;;;;;;;;;-0.82;90.36;100996.78;6215729;23;19916;-77
2023/12/02 12:30:29;;;;;;;;;;;;;;;-0.62;89.75;100997.03;6214786;23;19916;-77
2023/12/02 12:32:54;;;;;;;;;;;;;;;-1.03;90.97;100996.63;6190585;23;19947;-77
2023/12/02 12:35:19;;;;;;;;;;;;;;;-1.24;93.03;100999.94;6191997;23;19916;-77
2023/12/02 12:37:44;;;;;;;;;;;;;;;-1.03;94.63;100998.44;6218034;23;20015;-77
2023/12/02 12:40:11;;;;;;;;;;;;;;;-0.31;89.56;100994.59;6190124;23;19912;-77
2023/12/02 12:42:44;;;;;;;;;;;;;;;0.67;84.57;101006.09;6213231;23;19939;-77
2023/12/02 12:45:09;;;;;;;;;;;;;;;1.20;81.72;101007.78;6213422;23;19952;-77
2023/12/02 12:47:35;;;;;;;;;;;;;;;1.57;79.96;101002.94;6215691;23;19916;-78
2023/12/02 12:50:01;;;;;;;;;;;;;;;2.46;74.56;101006.59;6212431;23;19919;-78
2023/12/02 12:52:27;;;;;;;;;;;;;;;2.37;76.54;101005.59;6186179;23;19962;-78
2023/12/02 12:54:53;;;;;;;;;;;;;;;2.49;72.56;101015.09;6186496;23;20320;-78
2023/12/02 12:57:22;;;;;;;;;;;;;;;2.70;72.82;101008.81;6185255;23;20465;-77
2023/12/02 12:59:48;;;;;;;;;;;;;;;3.27;70.19;101015.97;6189700;23;20329;-78
2023/12/02 13:02:32;;;;;;;;;;;;;;;3.82;66.36;101017.81;6196684;23;19931;-78
2023/12/02 13:05:00;;;;;;;;;;;;;;;3.34;67.23;101014.41;6217820;22;20047;-78
2023/12/02 13:07:39;;;;;;;;;;;;;;;2.18;72.34;101017.06;6188642;23;19919;-78
2023/12/02 13:10:05;;;;;;;;;;;;;;;2.13;73.40;101028.06;6214800;23;20012;-78
2023/12/02 13:12:34;;;;;;;;;;;;;;;0.99;78.47;101020.22;6186981;23;19944;-77
2023/12/02 13:15:03;;;;;;;;;;;;;;;0.57;81.45;101026.34;6189015;23;19911;-79
2023/12/02 13:17:31;;;;;;;;;;;;;;;0.21;84.41;101020.47;6215992;23;19923;-79
2023/12/02 13:20:01;;;;;;;;;;;;;;;-0.06;86.00;101021.75;6211975;23;19943;-79
2023/12/02 13:22:26;;;;;;;;;;;;;;;-0.25;87.89;101022.34;6214540;23;19945;-79
2023/12/02 13:24:54;;;;;;;;;;;;;;;-0.47;89.38;101024.09;6189293;23;20357;-79
2023/12/02 13:27:45;;;;;;;;;;;;;;;-0.41;90.45;101017.47;6215596;23;20273;-79
2023/12/02 13:30:23;;;;;;;;;;;;;;;-0.61;91.82;101023.34;6192753;23;19918;-77
2023/12/02 13:33:07;;;;;;;;;;;;;;;-0.68;93.24;101019.50;6219718;23;20317;-79
2023/12/02 13:35:44;;;;;;;;;;;;;;;-0.68;93.47;101024.78;6216559;23;20377;-78
2023/12/02 13:38:15;;;;;;;;;;;;;;;-0.64;93.71;101020.09;6191182;23;19912;-79
2023/12/02 13:41:15;;;;;;;;;;;;;;;-0.69;95.50;101025.75;6215355;23;19935;-79
2023/12/02 13:43:52;;;;;;;;;;;;;;;-0.77;93.87;101025.50;6215514;23;19983;-79
2023/12/02 13:46:21;;;;;;;;;;;;;;;-0.73;94.70;101034.88;6215808;23;19994;-79
2023/12/02 13:48:53;;;;;;;;;;;;;;;-0.79;95.25;101030.06;6192669;23;19986;-79
2023/12/02 13:51:23;;;;;;;;;;;;;;;-0.77;95.68;101033.41;6192055;23;19923;-79
2023/12/02 13:53:56;;;;;;;;;;;;;;;-0.91;96.12;101029.22;6191560;23;19918;-79
2023/12/02 13:56:26;;;;;;;;;;;;;;;-0.88;96.33;101034.25;6195122;23;19912;-79
2023/12/02 13:59:08;;;;;;;;;;;;;;;-0.92;96.48;101032.81;6236613;23;19922;-79
2023/12/02 14:01:34;;;;;;;;;;;;;;;-1.12;97.92;101027.25;6233552;23;20256;-79
2023/12/02 14:06:24;;;;;;;;;;;;;;;-1.13;98.89;101030.00;6207938;23;19920;-78
2023/12/02 14:09:02;;;;;;;;;;;;;;;-1.12;98.72;101029.88;6187625;23;19916;-78
2023/12/02 14:11:31;;;;;;;;;;;;;;;-1.21;99.40;101046.41;6187897;23;19924;-78
2023/12/02 14:14:15;;;;;;;;;;;;;;;-0.96;98.12;101048.03;6187153;23;20281;-78
2023/12/02 14:16:52;;;;;;;;;;;;;;;-1.04;99.02;101041.66;6215654;23;20249;-78
2023/12/02 14:19:27;;;;;;;;;;;;;;;-1.07;99.83;101051.53;6213269;23;19961;-78
2023/12/02 14:21:58;;;;;;;;;;;;;;;-1.19;100.00;101049.78;6186570;23;19919;-78
2023/12/02 14:24:26;;;;;;;;;;;;;;;-1.23;100.00;101051.81;6213761;23;19952;-78
2023/12/02 14:27:04;;;;;;;;;;;;;;;-1.19;100.00;101041.88;6213142;23;19912;-77
2023/12/02 14:29:36;;;;;;;;;;;;;;;-1.26;99.90;101049.41;6185653;23;20340;-78
2023/12/02 14:32:07;;;;;;;;;;;;;;;-1.29;100.00;101056.72;6187741;23;19908;-77
2023/12/02 14:34:53;;;;;;;;;;;;;;;-1.30;100.00;101052.41;6212664;23;20046;-78
2023/12/02 14:37:24;;;;;;;;;;;;;;;-1.24;100.00;101057.25;6213072;23;19908;-77
2023/12/02 14:39:50;;;;;;;;;;;;;;;-1.37;100.00;101066.06;6213767;23;19982;-77
2023/12/02 14:42:24;;;;;;;;;;;;;;;-1.24;100.00;101065.16;6212899;23;20317;-77
2023/12/02 14:44:49;;;;;;;;;;;;;;;-1.37;100.00;101075.78;6213015;23;20387;-77
2023/12/02 14:47:15;;;;;;;;;;;;;;;-1.37;100.00;101079.25;6214092;23;19935;-78
2023/12/02 14:49:52;;;;;;;;;;;;;;;-1.46;100.00;101077.31;6212204;23;20241;-78
2023/12/02 14:52:18;;;;;;;;;;;;;;;-1.50;100.00;101075.00;6213955;23;19916;-77
2023/12/02 14:54:46;;;;;;;;;;;;;;;-1.47;100.00;101085.31;6214753;23;20364;-77
2023/12/02 14:57:12;;;;;;;;;;;;;;;-1.55;100.00;101088.53;6213154;23;19991;-78
2023/12/02 14:59:37;;;;;;;;;;;;;;;-1.61;100.00;101095.09;6214095;23;19947;-78
2023/12/02 15:02:02;;;;;;;;;;;;;;;-1.51;100.00;101100.56;6214327;23;19958;-78
2023/12/02 15:04:30;;;;;;;;;;;;;;;-1.56;100.00;101100.91;6212812;23;19916;-77
2023/12/02 15:06:56;;;;;;;;;;;;;;;-1.61;100.00;101110.13;6214858;23;19935;-77
2023/12/02 15:09:26;;;;;;;;;;;;;;;-1.66;100.00;101106.97;6188450;23;19919;-76
2023/12/02 15:11:58;;;;;;;;;;;;;;;-1.70;100.00;101119.53;6213537;23;19911;-76
2023/12/02 15:14:23;;;;;;;;;;;;;;;-1.73;100.00;101117.94;6213490;23;19908;-76
2023/12/02 15:16:50;;;;;;;;;;;;;;;-1.75;100.00;101121.66;6215115;23;20325;-77
2023/12/02 15:19:15;;;;;;;;;;;;;;;-1.77;100.00;101121.78;6186368;23;19922;-78
2023/12/02 15:21:59;;;;;;;;;;;;;;;-1.72;100.00;101124.09;6186619;23;20261;-77
2023/12/02 15:24:26;;;;;;;;;;;;;;;-1.71;100.00;101128.41;6213158;23;19934;-77
2023/12/02 15:26:52;;;;;;;;;;;;;;;-1.58;100.00;101133.63;6212977;23;19987;-77
2023/12/02 15:29:18;;;;;;;;;;;;;;;-1.69;100.00;101145.00;6186677;23;19912;-77
2023/12/02 15:31:43;;;;;;;;;;;;;;;-1.58;100.00;101141.53;6186861;23;19915;-77
2023/12/02 15:34:08;;;;;;;;;;;;;;;-1.68;100.00;101151.94;6186625;23;19916;-77
2023/12/02 15:36:33;;;;;;;;;;;;;;;-1.72;100.00;101151.31;6213510;23;20447;-77
2023/12/02 15:38:59;;;;;;;;;;;;;;;-1.60;100.00;101159.31;6186705;23;20253;-77
2023/12/02 15:41:24;;;;;;;;;;;;;;;-1.62;100.00;101162.06;6213754;23;19912;-77
2023/12/02 15:43:53;;;;;;;;;;;;;;;-1.69;100.00;101166.94;6213970;23;20314;-77
2023/12/02 15:46:18;;;;;;;;;;;;;;;-1.74;100.00;101166.41;6212331;23;19916;-77
2023/12/02 15:48:44;;;;;;;;;;;;;;;-1.69;100.00;101169.56;6214061;23;19954;-77
2023/12/02 15:51:10;;;;;;;;;;;;;;;-1.71;100.00;101170.66;6213928;23;19912;-77
2023/12/02 15:53:35;;;;;;;;;;;;;;;-1.51;100.00;101177.13;6187010;23;20393;-77
2023/12/02 15:56:01;;;;;;;;;;;;;;;-1.58;100.00;101183.78;6186941;23;19995;-77
2023/12/02 15:58:27;;;;;;;;;;;;;;;-1.46;100.00;101182.06;6213510;23;19943;-76
2023/12/02 16:00:52;;;;;;;;;;;;;;;-1.60;100.00;101180.44;6212783;23;19911;-76
2023/12/02 16:03:17;;;;;;;;;;;;;;;-1.70;100.00;101189.00;6213688;23;19923;-75
2023/12/02 16:05:45;;;;;;;;;;;;;;;-1.74;100.00;101184.88;6214547;23;20240;-76
2023/12/02 16:08:11;;;;;;;;;;;;;;;-1.72;100.00;101188.25;6214381;23;19934;-76
2023/12/02 16:10:37;;;;;;;;;;;;;;;-1.74;100.00;101189.34;6214698;23;20348;-76
2023/12/02 16:13:02;;;;;;;;;;;;;;;-1.80;100.00;101195.91;6187079;23;19928;-76
2023/12/02 16:15:28;;;;;;;;;;;;;;;-1.75;100.00;101192.91;6214091;23;20003;-75
2023/12/02 16:17:54;;;;;;;;;;;;;;;-1.77;100.00;101184.25;6215319;23;19912;-76
2023/12/02 16:20:20;;;;;;;;;;;;;;;-1.73;100.00;101196.31;6215892;23;19912;-76
2023/12/02 16:22:45;;;;;;;;;;;;;;;-1.78;100.00;101196.63;6216069;23;19911;-76
2023/12/02 16:25:11;;;;;;;;;;;;;;;-1.75;100.00;101193.75;6219151;23;19927;-76
2023/12/02 16:27:36;;;;;;;;;;;;;;;-1.66;100.00;101199.34;6217269;23;19919;-77
2023/12/02 16:30:02;;;;;;;;;;;;;;;-1.60;100.00;101207.66;6218651;23;19919;-77
2023/12/02 16:32:28;;;;;;;;;;;;;;;-1.58;100.00;101213.69;6214686;23;19934;-77
2023/12/02 16:34:53;;;;;;;;;;;;;;;-1.52;100.00;101209.75;6211464;23;20408;-77
2023/12/02 16:37:18;;;;;;;;;;;;;;;-1.64;100.00;101221.19;6213671;23;19958;-77
2023/12/02 16:39:44;;;;;;;;;;;;;;;-1.69;100.00;101214.44;6186203;23;20244;-77
2023/12/02 16:42:09;;;;;;;;;;;;;;;-1.55;100.00;101221.41;6211615;23;19912;-77
2023/12/02 16:44:34;;;;;;;;;;;;;;;-1.59;100.00;101221.72;6213539;23;19912;-77
2023/12/02 16:46:59;;;;;;;;;;;;;;;-1.70;100.00;101223.31;6213340;23;19935;-77
2023/12/02 16:49:25;;;;;;;;;;;;;;;-1.55;100.00;101229.31;6211391;23;20397;-77
2023/12/02 16:51:50;;;;;;;;;;;;;;;-1.65;100.00;101224.78;6213445;23;20321;-77
2023/12/02 16:54:16;;;;;;;;;;;;;;;-1.59;100.00;101232.28;6213156;23;20440;-77
2023/12/02 16:56:41;;;;;;;;;;;;;;;-1.56;100.00;101227.63;6213870;23;20010;-77
2023/12/02 16:59:09;;;;;;;;;;;;;;;-1.58;100.00;101228.66;6214278;23;19958;-77
2023/12/02 17:01:35;;;;;;;;;;;;;;;-1.72;100.00;101229.66;6187254;23;20194;-77
2023/12/02 17:04:00;;;;;;;;;;;;;;;-1.74;100.00;101237.66;6211774;23;19942;-77
2023/12/02 17:06:25;;;;;;;;;;;;;;;-1.73;100.00;101236.72;6186049;23;19922;-77
2023/12/02 17:08:52;;;;;;;;;;;;;;;-1.69;100.00;101243.47;6214062;23;19915;-77
2023/12/02 17:11:19;;;;;;;;;;;;;;;-1.60;100.00;101244.63;6211771;23;19923;-77
2023/12/02 17:13:50;;;;;;;;;;;;;;;-1.58;100.00;101247.16;6213115;23;19923;-77
2023/12/02 17:16:38;;;;;;;;;;;;;;;-1.55;100.00;101255.72;6213171;23;20211;-77
2023/12/02 17:19:07;;;;;;;;;;;;;;;-1.57;100.00;101264.69;6184850;23;19916;-77
2023/12/02 17:21:36;;;;;;;;;;;;;;;-1.60;100.00;101259.66;6212646;23;19916;-77
2023/12/02 17:24:02;;;;;;;;;;;;;;;-1.59;100.00;101263.97;6214236;23;20344;-77
2023/12/02 17:26:30;;;;;;;;;;;;;;;-1.62;100.00;101274.75;6216573;23;19947;-77
2023/12/02 17:28:55;;;;;;;;;;;;;;;-1.55;100.00;101275.97;6219847;23;19966;-77
2023/12/02 17:31:20;;;;;;;;;;;;;;;-1.56;100.00;101282.22;6214690;23;19924;-77
2023/12/02 17:33:46;;;;;;;;;;;;;;;-1.52;100.00;101278.41;6212335;23;19919;-78
2023/12/02 17:36:11;;;;;;;;;;;;;;;-1.35;100.00;101286.94;6211352;23;19912;-78
2023/12/02 17:38:36;;;;;;;;;;;;;;;-1.51;100.00;101282.75;6212894;23;19912;-78